Time;durP1;ratioP1;P1;durP2;ratioP2;P2;SDS_P1;SDS_P2;PMS_P1;PMS_P2;Temp;Humidity;BMP_temperature;BMP_pressure;BME280_temperature;BME280_humidity;BME280_pressure;Samples;Min_cycle;Max_cycle;Signal;HPM_P1;HPM_P2
2021/11/20 00:01:30;;;;;;;;;10.75;9.75;;;;;12.68;65.38;102614.25;5100154;27;45492;-61
2021/11/20 00:03:56;;;;;;;;;9.75;9.00;;;;;12.60;64.99;102606.31;5100199;27;45460;-61
2021/11/20 00:06:29;;;;;;;;;3.75;3.25;;;;;12.57;65.13;102598.31;5100262;27;45407;-61
2021/11/20 00:08:55;;;;;;;;;7.25;7.25;;;;;12.68;65.05;102612.47;5099519;27;45458;-61
2021/11/20 00:11:23;;;;;;;;;13.50;12.50;;;;;12.64;65.17;102602.69;5099897;27;46208;-61
2021/11/20 00:13:49;;;;;;;;;5.50;5.50;;;;;12.60;65.45;102603.63;5086571;27;45483;-61
2021/11/20 00:16:17;;;;;;;;;8.00;6.75;;;;;12.62;65.40;102614.31;5100105;27;45315;-61
2021/11/20 00:18:43;;;;;;;;;7.50;7.50;;;;;12.59;65.37;102599.16;5100086;27;45494;-61
2021/11/20 00:21:18;;;;;;;;;9.25;7.75;;;;;12.62;65.38;102603.63;5099715;27;46254;-61
2021/11/20 00:23:51;;;;;;;;;10.00;8.75;;;;;12.60;65.07;102600.94;5100357;27;45896;-61
2021/11/20 00:26:19;;;;;;;;;11.25;10.50;;;;;12.60;65.20;102598.28;5101828;27;45340;-61
2021/11/20 00:31:29;;;;;;;;;9.75;8.50;;;;;12.63;65.51;102584.84;5103319;27;45901;-61
2021/11/20 00:33:55;;;;;;;;;9.50;8.25;;;;;12.57;65.79;102574.19;5103708;27;45482;-61
2021/11/20 00:36:21;;;;;;;;;12.25;10.25;;;;;12.62;65.28;102574.16;5103429;27;45423;-61
2021/11/20 00:38:48;;;;;;;;;10.00;10.00;;;;;12.64;65.50;102585.72;5103574;27;45424;-61
2021/11/20 00:41:20;;;;;;;;;13.75;11.50;;;;;12.59;65.51;102565.22;5103061;27;45334;-61
2021/11/20 00:43:47;;;;;;;;;14.25;13.75;;;;;12.64;65.43;102583.03;5103207;27;45329;-61
2021/11/20 00:46:13;;;;;;;;;10.75;9.25;;;;;12.65;65.11;102574.13;5101733;27;45348;-61
2021/11/20 00:48:40;;;;;;;;;8.50;8.00;;;;;12.57;65.63;102561.66;5100065;27;45591;-61
2021/11/20 00:51:08;;;;;;;;;13.00;12.25;;;;;12.67;65.94;102572.28;5101847;27;45976;-61
2021/11/20 00:53:33;;;;;;;;;12.00;12.00;;;;;12.65;65.78;102568.75;5103312;27;45581;-61
2021/11/20 00:56:01;;;;;;;;;9.75;9.00;;;;;12.64;66.06;102561.59;5103130;27;45446;-61
2021/11/20 00:58:27;;;;;;;;;14.25;11.50;;;;;12.60;66.03;102560.75;5103140;27;45527;-61
2021/11/20 01:00:56;;;;;;;;;8.75;7.50;;;;;12.60;66.00;102556.28;5102775;27;45545;-61
2021/11/20 01:03:22;;;;;;;;;11.25;9.50;;;;;12.55;66.04;102551.91;5103187;27;45522;-61
2021/11/20 01:05:48;;;;;;;;;11.50;11.00;;;;;12.53;66.45;102541.19;5103035;27;45471;-61
2021/11/20 01:08:17;;;;;;;;;12.25;12.00;;;;;12.62;66.07;102552.72;5102922;27;45332;-61
2021/11/20 01:10:46;;;;;;;;;13.75;13.50;;;;;12.62;65.88;102552.72;5102719;27;46189;-61
2021/11/20 01:13:12;;;;;;;;;13.75;11.00;;;;;12.61;66.08;102557.16;5101341;27;45968;-61
2021/11/20 01:15:57;;;;;;;;;13.75;13.75;;;;;12.56;66.00;102557.25;5102446;27;45183;-61
2021/11/20 01:18:24;;;;;;;;;14.00;13.00;;;;;12.51;66.12;102551.06;5102688;27;45176;-61
2021/11/20 01:20:50;;;;;;;;;17.00;15.00;;;;;12.50;65.94;102543.03;5102516;27;48947;-61
2021/11/20 01:23:18;;;;;;;;;15.00;14.00;;;;;12.47;66.18;102543.06;5102613;27;45545;-61
2021/11/20 01:25:44;;;;;;;;;15.00;13.00;;;;;12.45;66.17;102535.03;5102055;27;45333;-61
2021/11/20 01:28:10;;;;;;;;;15.25;14.00;;;;;12.45;66.30;102536.84;5102134;27;45304;-61
2021/11/20 01:30:36;;;;;;;;;16.75;14.25;;;;;12.44;66.19;102532.38;5102274;27;45381;-61
2021/11/20 01:33:02;;;;;;;;;12.75;12.50;;;;;12.45;66.14;102520.78;5102523;27;45477;-62
2021/11/20 01:35:29;;;;;;;;;17.75;15.25;;;;;12.46;66.08;102522.53;5102717;27;45320;-62
2021/11/20 01:37:54;;;;;;;;;18.50;15.75;;;;;12.44;66.14;102524.34;5101693;27;45342;-61
2021/11/20 01:40:22;;;;;;;;;15.00;15.00;;;;;12.46;66.15;102515.38;5102194;27;45471;-61
2021/11/20 01:42:48;;;;;;;;;20.25;17.00;;;;;12.48;65.97;102515.34;5088587;27;45525;-61
2021/11/20 01:45:32;;;;;;;;;16.25;15.00;;;;;12.49;66.39;102509.97;5102441;27;45293;-61
2021/11/20 01:48:28;;;;;;;;;17.00;15.75;;;;;12.56;66.07;102529.53;5096042;27;45322;-61
2021/11/20 01:51:02;;;;;;;;;20.75;20.00;;;;;12.55;66.06;102517.06;5099137;27;46528;-61
2021/11/20 01:53:42;;;;;;;;;19.25;14.75;;;;;12.47;66.02;102505.56;5102190;27;45391;-61
2021/11/20 01:56:17;;;;;;;;;23.00;19.75;;;;;12.46;65.98;102512.69;5089655;27;45304;-61
2021/11/20 01:58:58;;;;;;;;;15.75;15.00;;;;;12.48;66.04;102515.34;5102060;27;45416;-61
2021/11/20 02:01:35;;;;;;;;;19.00;15.75;;;;;12.45;66.29;102513.63;5101817;27;46845;-61
2021/11/20 02:04:16;;;;;;;;;18.25;17.00;;;;;12.46;66.26;102515.38;5101642;27;45515;-61
2021/11/20 02:06:44;;;;;;;;;15.75;13.75;;;;;12.47;66.28;102505.56;5102063;27;45378;-61
2021/11/20 02:09:23;;;;;;;;;17.25;14.00;;;;;12.41;66.26;102501.16;5102051;27;45412;-61
2021/11/20 02:11:58;;;;;;;;;16.50;13.75;;;;;12.33;66.08;102487.88;5101465;27;46396;-61
2021/11/20 02:14:26;;;;;;;;;14.00;12.75;;;;;12.48;66.23;102504.63;5101400;27;45420;-61
2021/11/20 02:16:59;;;;;;;;;15.00;14.25;;;;;12.48;66.26;102507.31;5101669;27;45346;-61
2021/11/20 02:19:35;;;;;;;;;17.00;14.75;;;;;12.48;66.14;102501.97;5101997;27;45420;-61
2021/11/20 02:22:16;;;;;;;;;22.25;16.50;;;;;12.48;66.04;102504.63;5101541;27;46329;-61
2021/11/20 02:24:42;;;;;;;;;16.50;12.25;;;;;12.48;66.13;102504.63;5101761;27;45217;-61
2021/11/20 02:27:10;;;;;;;;;15.00;12.00;;;;;12.49;66.15;102509.09;5101289;27;55641;-61
2021/11/20 02:29:47;;;;;;;;;19.00;13.00;;;;;12.47;65.88;102506.44;5101452;27;45362;-61
2021/11/20 02:32:21;;;;;;;;;14.50;14.50;;;;;12.41;65.96;102501.16;5101493;27;45315;-61
2021/11/20 02:34:48;;;;;;;;;17.00;15.00;;;;;12.45;65.91;102496.66;5101526;27;45646;-61
2021/11/20 02:37:15;;;;;;;;;15.25;14.75;;;;;12.42;65.90;102494.91;5094621;27;45377;-61
2021/11/20 02:39:40;;;;;;;;;14.00;14.00;;;;;12.37;65.92;102491.38;5101582;27;45157;-61
2021/11/20 02:42:11;;;;;;;;;17.50;13.50;;;;;12.36;66.22;102498.56;5101078;27;46002;-61
2021/11/20 02:44:37;;;;;;;;;15.25;14.00;;;;;12.32;65.75;102480.72;5092509;27;45457;-61
2021/11/20 02:47:24;;;;;;;;;13.50;12.00;;;;;12.35;66.06;102482.50;5095004;27;45345;-61
2021/11/20 02:49:51;;;;;;;;;12.25;12.25;;;;;12.33;65.87;102476.25;5093759;27;45266;-61
2021/11/20 02:52:18;;;;;;;;;15.50;13.50;;;;;12.36;66.12;102481.56;5099540;27;48310;-61
2021/11/20 02:54:44;;;;;;;;;16.75;15.50;;;;;12.33;66.01;102476.25;5101539;27;45372;-61
2021/11/20 02:57:14;;;;;;;;;13.50;12.00;;;;;12.29;66.21;102470.03;5101144;27;45404;-61
2021/11/20 02:59:41;;;;;;;;;14.75;13.00;;;;;12.35;66.20;102477.16;5099899;27;45451;-61
2021/11/20 03:02:07;;;;;;;;;15.75;14.75;;;;;12.34;66.12;102478.03;5100551;27;46271;-61
2021/11/20 03:04:32;;;;;;;;;12.75;10.75;;;;;12.26;66.07;102461.16;5101305;27;45349;-61
2021/11/20 03:06:58;;;;;;;;;13.25;12.00;;;;;12.28;66.10;102454.00;5101064;27;45333;-61
2021/11/20 03:09:30;;;;;;;;;13.25;11.50;;;;;12.31;66.18;102453.97;5101100;27;45456;-61
2021/11/20 03:11:56;;;;;;;;;16.25;11.00;;;;;12.27;66.31;102454.91;5100749;27;46380;-61
2021/11/20 03:14:22;;;;;;;;;15.75;10.75;;;;;12.27;66.09;102460.28;5098497;27;45548;-61
2021/11/20 03:16:55;;;;;;;;;13.75;12.25;;;;;12.24;65.97;102447.78;5100693;27;45467;-61
2021/11/20 03:19:22;;;;;;;;;11.25;9.75;;;;;12.17;65.83;102452.34;5101082;27;45277;-61
2021/11/20 03:21:52;;;;;;;;;8.50;7.50;;;;;12.15;65.86;102439.91;5100453;27;45264;-61
2021/11/20 03:24:20;;;;;;;;;10.25;7.75;;;;;12.11;65.95;102438.13;5101010;27;45549;-61
2021/11/20 03:26:46;;;;;;;;;11.00;7.75;;;;;12.08;66.13;102443.53;5087657;27;45340;-61
2021/11/20 03:29:12;;;;;;;;;13.00;11.25;;;;;12.09;66.30;102431.94;5100737;27;45443;-61
2021/11/20 03:31:42;;;;;;;;;9.00;8.50;;;;;12.03;66.39;102430.22;5100488;27;45985;-61
2021/11/20 03:34:07;;;;;;;;;8.50;8.50;;;;;12.04;65.81;102427.53;5100744;27;45428;-61
2021/11/20 03:36:34;;;;;;;;;11.75;9.50;;;;;11.94;66.27;102409.78;5100773;27;45647;-61
2021/11/20 03:39:05;;;;;;;;;10.00;10.00;;;;;12.03;66.09;102424.88;5100672;27;45385;-61
2021/11/20 03:41:30;;;;;;;;;9.00;6.25;;;;;12.03;66.18;102417.72;5100507;27;45416;-61
2021/11/20 03:43:56;;;;;;;;;8.00;8.00;;;;;11.81;66.21;102381.34;5100253;27;45450;-61
2021/11/20 03:46:21;;;;;;;;;5.75;5.75;;;;;12.03;66.03;102415.03;5099168;27;45469;-61
2021/11/20 03:48:46;;;;;;;;;6.25;6.00;;;;;12.00;66.04;102406.16;5099883;27;47976;-61
2021/11/20 03:51:12;;;;;;;;;7.25;7.25;;;;;11.98;65.93;102399.94;5100038;27;46105;-61
2021/11/20 03:53:37;;;;;;;;;8.25;8.25;;;;;11.80;65.90;102383.16;5100585;27;45374;-61
2021/11/20 03:56:03;;;;;;;;;8.00;8.00;;;;;11.85;66.29;102397.34;5100416;27;45433;-61
2021/11/20 03:58:28;;;;;;;;;7.25;6.50;;;;;11.78;66.25;102382.28;5100311;27;45560;-61
2021/11/20 04:01:00;;;;;;;;;7.25;6.00;;;;;11.85;66.51;102391.13;5099708;27;46408;-61
2021/11/20 04:03:26;;;;;;;;;4.00;4.00;;;;;11.79;66.54;102376.00;5100167;27;45314;-61
2021/11/20 04:05:54;;;;;;;;;5.25;4.50;;;;;11.80;66.24;102383.16;5100585;27;45421;-61
2021/11/20 04:08:20;;;;;;;;;7.75;7.75;;;;;11.80;66.68;102376.94;5100216;27;45328;-61
2021/11/20 04:10:47;;;;;;;;;7.50;7.00;;;;;11.90;66.67;102396.44;5100162;27;45330;-61
2021/11/20 04:13:14;;;;;;;;;7.25;7.25;;;;;11.84;66.73;102376.88;5099777;27;45275;-61
2021/11/20 04:15:39;;;;;;;;;8.25;8.25;;;;;11.87;66.77;102366.13;5099921;27;45330;-61
2021/11/20 04:18:05;;;;;;;;;5.75;5.50;;;;;11.94;66.69;102366.97;5100212;27;45395;-61
2021/11/20 04:20:30;;;;;;;;;5.25;4.00;;;;;11.94;66.64;102364.28;5099853;27;45311;-61
2021/11/20 04:22:55;;;;;;;;;7.25;5.50;;;;;11.91;66.45;102369.69;5100142;27;45449;-61
2021/11/20 04:25:23;;;;;;;;;3.50;3.50;;;;;11.87;66.32;102363.44;5100121;27;45488;-61
2021/11/20 04:27:48;;;;;;;;;3.00;3.00;;;;;11.90;66.18;102367.88;5100109;27;45327;-61
2021/11/20 04:30:15;;;;;;;;;3.00;2.00;;;;;11.90;65.98;102375.03;5099558;27;46154;-61
2021/11/20 04:32:41;;;;;;;;;3.00;3.00;;;;;11.86;65.73;102360.78;5099851;27;45242;-61
2021/11/20 04:35:08;;;;;;;;;1.00;1.00;;;;;11.78;65.64;102350.19;5100196;27;45385;-61
2021/11/20 04:37:33;;;;;;;;;3.00;2.75;;;;;11.71;65.98;102358.28;5099638;27;45160;-61
2021/11/20 04:39:59;;;;;;;;;5.00;3.25;;;;;11.72;66.15;102360.94;5099941;27;45680;-61
2021/11/20 04:42:25;;;;;;;;;3.25;3.00;;;;;11.68;66.32;102344.06;5099619;27;45331;-61
2021/11/20 04:44:51;;;;;;;;;2.00;2.00;;;;;11.70;65.90;102346.72;5100059;27;45305;-61
2021/11/20 04:47:17;;;;;;;;;1.00;1.00;;;;;11.65;65.95;102333.38;5093240;27;46294;-61
2021/11/20 04:49:42;;;;;;;;;2.00;2.00;;;;;11.71;66.16;102350.25;5096238;27;46288;-61
2021/11/20 04:52:08;;;;;;;;;2.50;1.75;;;;;11.69;65.99;102342.25;5099464;27;45304;-61
2021/11/20 04:54:33;;;;;;;;;3.25;3.25;;;;;11.73;66.07;102337.75;5100026;27;45325;-61
2021/11/20 04:56:58;;;;;;;;;4.00;4.00;;;;;11.72;65.92;102344.03;5099498;27;45389;-61
2021/11/20 04:59:24;;;;;;;;;2.75;2.75;;;;;11.71;65.86;102337.78;5099614;27;46539;-61
2021/11/20 05:01:50;;;;;;;;;3.00;3.00;;;;;11.68;66.12;102329.81;5099220;27;45192;-61
2021/11/20 05:04:15;;;;;;;;;3.50;3.00;;;;;11.71;65.81;102329.78;5099849;27;45163;-61
2021/11/20 05:06:41;;;;;;;;;5.00;4.00;;;;;11.67;66.08;102314.63;5099231;27;45460;-61
2021/11/20 05:09:07;;;;;;;;;6.00;6.00;;;;;11.66;66.21;102329.81;5099419;27;45132;-61
2021/11/20 05:11:33;;;;;;;;;4.00;4.00;;;;;11.66;66.43;102334.25;5099229;27;45266;-61
2021/11/20 05:14:00;;;;;;;;;6.00;6.00;;;;;11.56;66.06;102312.09;5102736;27;45360;-61
2021/11/20 05:16:26;;;;;;;;;5.75;4.00;;;;;11.55;65.93;102317.47;5102729;27;45333;-61
2021/11/20 05:18:52;;;;;;;;;6.50;4.75;;;;;11.64;66.36;102336.97;5103053;27;45407;-61
2021/11/20 05:21:19;;;;;;;;;2.50;2.50;;;;;11.64;66.05;102339.66;5092180;27;45478;-61
2021/11/20 05:23:45;;;;;;;;;3.00;3.00;;;;;11.63;66.37;102332.53;5102980;27;45277;-61
2021/11/20 05:26:12;;;;;;;;;3.00;3.00;;;;;11.66;66.11;102321.78;5102687;27;45399;-61
2021/11/20 05:28:40;;;;;;;;;3.50;3.00;;;;;11.67;65.90;102330.69;5102620;27;46000;-61
2021/11/20 05:31:05;;;;;;;;;4.00;2.75;;;;;11.64;66.19;102320.03;5102191;27;45324;-61
2021/11/20 05:33:35;;;;;;;;;3.25;3.25;;;;;11.59;66.32;102311.16;5102962;27;45383;-61
2021/11/20 05:36:02;;;;;;;;;5.25;4.50;;;;;11.62;66.39;102306.66;5102559;27;45442;-61
2021/11/20 05:38:29;;;;;;;;;4.75;4.75;;;;;11.53;65.88;102298.75;5102239;27;45277;-61
2021/11/20 05:40:55;;;;;;;;;5.50;4.50;;;;;11.58;66.62;102296.03;5102186;27;45590;-61
2021/11/20 05:43:21;;;;;;;;;7.25;5.75;;;;;11.65;66.04;102305.75;5102496;27;45408;-61
2021/11/20 05:45:54;;;;;;;;;6.25;6.25;;;;;11.61;66.10;102304.91;5100089;27;45467;-61
2021/11/20 05:48:21;;;;;;;;;6.00;5.75;;;;;11.55;66.15;102302.28;5091401;27;46646;-61
2021/11/20 05:50:47;;;;;;;;;5.00;5.00;;;;;11.51;66.15;102303.25;5098848;27;45539;-61
2021/11/20 05:53:15;;;;;;;;;7.50;5.00;;;;;11.53;66.59;102313.91;5102510;27;45328;-61
2021/11/20 05:55:43;;;;;;;;;6.25;5.25;;;;;11.47;66.58;102313.06;5102261;27;45759;-61
2021/11/20 05:58:09;;;;;;;;;5.75;5.00;;;;;11.43;66.47;102311.34;5102387;27;45268;-61
2021/11/20 06:00:37;;;;;;;;;4.75;4.25;;;;;11.50;66.55;102318.38;5101752;27;45309;-61
2021/11/20 06:03:04;;;;;;;;;8.75;6.75;;;;;11.49;66.75;102313.97;5102462;27;45323;-61
2021/11/20 06:05:31;;;;;;;;;6.00;6.00;;;;;11.51;66.79;102313.94;5101983;27;45441;-61
2021/11/20 06:07:57;;;;;;;;;10.25;6.50;;;;;11.40;66.76;102300.69;5101864;27;46236;-61
2021/11/20 06:10:22;;;;;;;;;8.50;6.00;;;;;11.50;66.64;102309.50;5101636;27;45163;-61
2021/11/20 06:12:47;;;;;;;;;6.75;6.25;;;;;11.52;66.73;102305.00;5102190;27;45317;-61
2021/11/20 06:15:13;;;;;;;;;7.00;7.00;;;;;11.56;66.44;102305.84;5101106;27;45229;-61
2021/11/20 06:17:39;;;;;;;;;7.75;7.75;;;;;11.56;66.65;102311.19;5101957;27;45313;-61
2021/11/20 06:20:06;;;;;;;;;7.75;6.50;;;;;11.55;66.32;102304.09;5099539;27;45442;-61
2021/11/20 06:22:32;;;;;;;;;9.25;6.25;;;;;11.52;66.38;102304.13;5093341;27;45235;-61
2021/11/20 06:24:57;;;;;;;;;7.25;7.25;;;;;11.58;66.72;102312.09;5101505;27;45360;-61
2021/11/20 06:27:24;;;;;;;;;12.75;8.75;;;;;11.53;66.77;102306.78;5101666;27;45384;-61
2021/11/20 06:29:49;;;;;;;;;9.25;8.50;;;;;11.61;66.52;102307.59;5101524;27;45302;-61
2021/11/20 06:32:14;;;;;;;;;7.75;6.50;;;;;11.63;66.70;102307.56;5101787;27;45251;-61
2021/11/20 06:34:40;;;;;;;;;9.00;6.25;;;;;11.65;66.24;102311.09;5100873;27;45226;-61
2021/11/20 06:37:06;;;;;;;;;6.25;5.50;;;;;11.63;66.52;102307.56;5101394;27;45351;-61
2021/11/20 06:39:32;;;;;;;;;7.75;5.25;;;;;11.66;66.71;102312.84;5100032;27;45270;-61
2021/11/20 06:41:58;;;;;;;;;14.25;11.25;;;;;11.65;66.43;102311.09;5101557;27;45330;-61
2021/11/20 06:44:24;;;;;;;;;9.75;9.00;;;;;11.62;66.44;102295.97;5101629;27;45269;-61
2021/11/20 06:46:49;;;;;;;;;10.75;9.50;;;;;11.63;66.75;102310.25;5095240;27;45453;-61
2021/11/20 06:49:15;;;;;;;;;6.25;6.25;;;;;11.63;66.54;102304.91;5101925;27;45520;-61
2021/11/20 06:51:41;;;;;;;;;9.25;6.50;;;;;11.57;66.52;102295.13;5096920;27;45393;-61
2021/11/20 06:54:08;;;;;;;;;5.50;5.25;;;;;11.61;66.58;102298.66;5098901;27;45495;-61
2021/11/20 07:01:50;;;;;;;;;6.75;6.75;;;;;11.61;66.57;102285.28;5101266;27;45284;-61
2021/11/20 07:04:21;;;;;;;;;9.75;7.25;;;;;11.67;66.40;102290.56;5100098;27;45518;-61
2021/11/20 07:07:11;;;;;;;;;6.75;6.75;;;;;11.68;66.67;102278.97;5099508;27;47600;-62
2021/11/20 07:09:37;;;;;;;;;11.25;11.25;;;;;11.67;66.68;102277.19;5099414;27;45400;-61
2021/11/20 07:12:05;;;;;;;;;10.25;7.50;;;;;11.68;66.71;102278.97;5099684;27;45394;-61
2021/11/20 07:14:31;;;;;;;;;11.25;9.75;;;;;11.69;66.45;102283.41;5097816;27;45416;-62
2021/11/20 07:16:57;;;;;;;;;6.00;6.00;;;;;11.66;66.45;102286.09;5099363;27;45631;-61
2021/11/20 07:19:23;;;;;;;;;11.75;9.50;;;;;11.66;66.90;102279.00;5099805;27;45691;-61
2021/11/20 07:21:48;;;;;;;;;8.25;8.25;;;;;11.68;67.00;102290.56;5100860;27;45300;-61
2021/11/20 07:24:17;;;;;;;;;13.50;11.00;;;;;11.68;67.29;102287.00;5101094;27;45392;-61
2021/11/20 07:26:43;;;;;;;;;10.75;9.00;;;;;11.65;66.94;102287.03;5100792;27;45313;-61
2021/11/20 07:29:10;;;;;;;;;10.25;7.75;;;;;11.61;67.13;102283.50;5100941;27;45432;-62
2021/11/20 07:31:36;;;;;;;;;13.00;10.50;;;;;11.64;66.82;102290.59;5100983;27;45289;-61
2021/11/20 07:34:01;;;;;;;;;11.50;10.25;;;;;11.59;66.71;102287.09;5098829;27;45582;-61
2021/11/20 07:36:28;;;;;;;;;12.50;10.25;;;;;11.61;66.77;102294.22;5098554;27;46500;-61
2021/11/20 07:38:57;;;;;;;;;13.50;11.25;;;;;11.61;67.02;102293.31;5100536;27;45235;-61
2021/11/20 07:41:24;;;;;;;;;8.00;8.00;;;;;11.67;66.60;102301.25;5100717;27;45386;-61
2021/11/20 07:43:51;;;;;;;;;14.00;12.00;;;;;11.63;66.55;102288.84;5100425;27;45262;-61
2021/11/20 07:46:18;;;;;;;;;10.00;8.50;;;;;11.64;66.70;102296.84;5093713;27;45485;-61
2021/11/20 07:48:44;;;;;;;;;12.25;12.00;;;;;11.64;66.67;102295.94;5088706;27;45491;-61
2021/11/20 07:51:12;;;;;;;;;5.75;5.75;;;;;11.54;66.55;102303.19;5099839;27;45368;-61
2021/11/20 07:53:38;;;;;;;;;8.75;8.75;;;;;11.53;67.06;102306.78;5100558;27;45359;-61
2021/11/20 07:56:05;;;;;;;;;10.75;10.25;;;;;11.56;66.83;102301.41;5086829;27;45388;-61
2021/11/20 07:58:30;;;;;;;;;12.00;12.00;;;;;11.57;66.72;102307.63;5100406;27;45577;-61
2021/11/20 08:00:56;;;;;;;;;9.00;7.25;;;;;11.52;66.87;102302.31;5100108;27;45386;-61
2021/11/20 08:03:22;;;;;;;;;11.00;10.00;;;;;11.52;66.77;102294.31;5099030;27;45599;-61
2021/11/20 08:05:50;;;;;;;;;12.75;11.00;;;;;11.56;67.15;102305.84;5099153;27;46543;-61
2021/11/20 08:08:15;;;;;;;;;13.00;13.00;;;;;11.53;66.67;102297.84;5099736;27;45583;-61
2021/11/20 08:10:41;;;;;;;;;12.25;11.00;;;;;11.58;66.92;102299.59;5096939;27;45322;-61
2021/11/20 08:13:07;;;;;;;;;12.00;11.00;;;;;11.53;66.67;102298.75;5099058;27;45300;-60
2021/11/20 08:15:33;;;;;;;;;10.25;10.25;;;;;11.50;66.42;102310.38;5099110;27;46488;-60
2021/11/20 08:18:00;;;;;;;;;12.50;11.00;;;;;11.46;66.90;102310.41;5098619;27;45504;-61
2021/11/20 08:20:32;;;;;;;;;11.50;11.50;;;;;11.48;67.09;102313.97;5098496;27;45499;-61
2021/11/20 08:22:57;;;;;;;;;9.75;7.00;;;;;11.48;66.62;102303.28;5100149;27;45425;-61
2021/11/20 08:25:25;;;;;;;;;7.25;6.25;;;;;11.46;66.90;102294.38;5099798;27;46161;-61
2021/11/20 08:27:51;;;;;;;;;7.25;7.25;;;;;11.44;66.86;102285.47;5100121;27;45229;-61
2021/11/20 08:30:20;;;;;;;;;10.75;10.75;;;;;11.44;67.13;102282.81;5087062;27;45551;-61
2021/11/20 08:32:47;;;;;;;;;9.00;8.75;;;;;11.48;66.97;102295.25;5099619;27;45462;-61
2021/11/20 08:35:14;;;;;;;;;14.00;11.25;;;;;11.47;66.85;102285.44;5098494;27;46387;-61
2021/11/20 08:37:40;;;;;;;;;10.50;10.00;;;;;11.44;66.84;102280.13;5105359;27;45454;-61
2021/11/20 08:40:07;;;;;;;;;11.00;11.00;;;;;11.39;67.30;102269.47;5098388;27;45442;-61
2021/11/20 08:42:35;;;;;;;;;10.25;8.50;;;;;11.44;67.11;102275.69;5099436;27;45227;-63
2021/11/20 08:45:01;;;;;;;;;11.25;10.00;;;;;11.39;66.86;102260.59;5099483;27;47507;-62
2021/11/20 08:47:27;;;;;;;;;11.75;9.00;;;;;11.46;66.91;102257.84;5100717;27;45414;-61
2021/11/20 08:49:52;;;;;;;;;12.50;10.50;;;;;11.56;67.00;102261.28;5094236;27;45294;-60
2021/11/20 08:52:17;;;;;;;;;7.00;7.00;;;;;11.49;66.88;102241.75;5103238;27;45407;-61
2021/11/20 08:54:43;;;;;;;;;12.75;10.50;;;;;11.62;67.11;102254.97;5102235;27;45515;-61
2021/11/20 08:57:09;;;;;;;;;9.75;8.50;;;;;11.63;67.00;102254.06;5103435;27;45435;-60
2021/11/20 08:59:37;;;;;;;;;10.00;9.25;;;;;11.59;66.83;102255.88;5102916;27;45504;-60
2021/11/20 09:02:17;;;;;;;;;11.75;10.25;;;;;11.49;66.67;102231.06;5101979;27;45478;-61
2021/11/20 09:05:00;;;;;;;;;11.00;10.75;;;;;11.47;66.68;102230.19;5101596;27;46967;-61
2021/11/20 09:07:29;;;;;;;;;14.50;11.75;;;;;11.56;66.99;102239.91;5102360;27;45692;-61
2021/11/20 09:09:54;;;;;;;;;8.75;8.75;;;;;11.62;66.76;102241.59;5102696;27;45420;-61
2021/11/20 09:12:27;;;;;;;;;12.00;11.00;;;;;11.58;66.88;102235.41;5102439;27;45439;-61
2021/11/20 09:15:07;;;;;;;;;14.00;13.00;;;;;11.64;66.86;102242.44;5100870;27;46059;-61
2021/11/20 09:17:32;;;;;;;;;14.75;12.75;;;;;11.61;66.76;102226.44;5102498;27;45164;-62
2021/11/20 09:19:58;;;;;;;;;12.75;10.75;;;;;11.50;67.14;102214.09;5101971;27;45366;-62
2021/11/20 09:22:23;;;;;;;;;15.75;15.75;;;;;11.60;66.89;102228.25;5099302;27;45450;-61
2021/11/20 09:24:49;;;;;;;;;14.00;12.00;;;;;11.64;66.83;102232.66;5100992;27;45702;-62
2021/11/20 09:27:15;;;;;;;;;15.00;12.00;;;;;11.60;66.74;102227.38;5101889;27;45454;-62
2021/11/20 09:29:43;;;;;;;;;13.50;13.00;;;;;11.64;66.69;102231.75;5102814;27;45467;-61
2021/11/20 09:32:09;;;;;;;;;14.00;14.00;;;;;11.60;66.78;102230.03;5100419;27;45612;-61
2021/11/20 09:34:35;;;;;;;;;15.50;15.00;;;;;11.59;66.78;102225.59;5101875;27;47375;-61
2021/11/20 09:37:01;;;;;;;;;18.50;17.25;;;;;11.56;66.80;102225.63;5101889;27;45297;-60
2021/11/20 09:39:30;;;;;;;;;19.75;18.50;;;;;11.52;66.54;102223.91;5102758;27;45828;-61
2021/11/20 09:42:27;;;;;;;;;22.75;18.50;;;;;11.48;66.47;102220.38;5102427;27;45247;-61
2021/11/20 09:44:58;;;;;;;;;23.50;19.50;;;;;11.43;66.68;102222.22;5102257;27;46224;-61
2021/11/20 09:47:30;;;;;;;;;14.50;13.50;;;;;11.37;66.83;102220.50;5096098;27;45743;-61
2021/11/20 09:50:05;;;;;;;;;14.50;11.50;;;;;11.41;67.05;102210.66;5099247;27;45454;-61
2021/11/20 09:52:31;;;;;;;;;14.75;14.00;;;;;11.35;66.87;102200.94;5101292;27;45358;-61
2021/11/20 09:54:57;;;;;;;;;18.50;17.50;;;;;11.43;66.81;102219.56;5102038;27;46299;-61
2021/11/20 09:57:33;;;;;;;;;12.25;12.25;;;;;11.39;66.65;102197.28;5099328;27;45216;-61
2021/11/20 10:00:26;;;;;;;;;17.75;14.00;;;;;11.48;66.86;102215.03;5096876;27;45361;-62
2021/11/20 10:02:58;;;;;;;;;21.25;19.75;;;;;11.47;65.99;102214.13;5102028;27;45375;-61
2021/11/20 10:05:41;;;;;;;;;24.00;23.00;;;;;11.45;66.24;102204.38;5101846;27;46487;-61
2021/11/20 10:08:15;;;;;;;;;23.75;21.25;;;;;11.43;66.68;102198.16;5101863;27;45428;-61
2021/11/20 10:10:45;;;;;;;;;20.75;18.25;;;;;11.49;66.50;102206.09;5102070;27;45382;-61
2021/11/20 10:13:22;;;;;;;;;20.25;16.00;;;;;11.52;66.23;102205.19;5101625;27;45451;-60
2021/11/20 10:15:50;;;;;;;;;15.00;14.50;;;;;11.55;66.14;102197.13;5095804;27;45295;-60
2021/11/20 10:18:38;;;;;;;;;18.00;17.00;;;;;11.54;66.59;102200.69;5102091;27;45332;-60
2021/11/20 10:21:37;;;;;;;;;19.50;18.25;;;;;11.56;66.18;102190.84;5095759;27;45314;-60
2021/11/20 10:24:40;;;;;;;;;18.75;15.00;;;;;11.55;66.28;102192.66;5100063;27;45545;-61
2021/11/20 10:27:30;;;;;;;;;18.50;15.25;;;;;11.55;66.31;102187.31;5095509;27;45304;-61
2021/11/20 10:30:08;;;;;;;;;18.25;15.00;;;;;11.55;66.12;102183.75;5101286;27;45364;-61
2021/11/20 10:32:49;;;;;;;;;16.25;14.25;;;;;11.56;65.96;102183.72;5101563;27;45283;-61
2021/11/20 10:35:26;;;;;;;;;16.25;16.25;;;;;11.56;66.12;102178.38;5098886;27;45667;-60
2021/11/20 10:37:56;;;;;;;;;19.75;16.50;;;;;11.52;66.41;102168.63;5101559;27;46470;-61
2021/11/20 10:40:51;;;;;;;;;21.00;17.50;;;;;11.53;65.93;102165.06;5101208;27;45553;-61
2021/11/20 10:43:24;;;;;;;;;19.25;16.00;;;;;11.53;65.76;102156.13;5097327;27;45257;-61
2021/11/20 10:46:19;;;;;;;;;20.00;14.75;;;;;11.52;65.88;102155.25;5098863;27;46569;-62
2021/11/20 10:48:48;;;;;;;;;22.00;19.75;;;;;11.59;65.93;102156.91;5093362;27;47049;-61
2021/11/20 10:51:44;;;;;;;;;15.50;14.50;;;;;11.61;66.01;102159.56;5087461;27;45538;-61
2021/11/20 10:54:47;;;;;;;;;17.00;15.75;;;;;11.61;65.92;102155.13;5098794;27;45229;-61
2021/11/20 10:57:57;;;;;;;;;20.00;16.50;;;;;11.56;65.68;102135.59;5100918;27;45373;-61
2021/11/20 11:01:00;;;;;;;;;17.50;16.75;;;;;11.62;65.84;102131.94;5100737;27;46460;-61
2021/11/20 11:03:42;;;;;;;;;13.75;13.75;;;;;11.61;65.69;102132.84;5101017;27;45517;-61
2021/11/20 11:06:37;;;;;;;;;19.25;16.00;;;;;11.57;65.74;102133.78;5100668;27;45466;-61
2021/11/20 11:09:10;;;;;;;;;20.25;19.25;;;;;11.56;65.70;102124.91;5087509;27;45246;-61
2021/11/20 11:11:47;;;;;;;;;20.25;16.75;;;;;11.54;65.69;102126.69;5099886;27;45551;-61
2021/11/20 11:14:44;;;;;;;;;22.75;20.00;;;;;11.56;65.45;102118.66;5100722;27;45554;-61
2021/11/20 11:17:44;;;;;;;;;21.00;19.50;;;;;11.56;65.85;102110.63;5088386;27;45426;-61
2021/11/20 11:20:31;;;;;;;;;27.00;22.25;;;;;11.58;65.79;102103.47;5097758;27;45554;-61
2021/11/20 11:23:06;;;;;;;;;25.50;19.75;;;;;11.58;65.67;102104.34;5099196;27;45681;-61
2021/11/20 11:25:39;;;;;;;;;26.25;23.50;;;;;11.57;65.71;102104.38;5099875;27;45723;-61
2021/11/20 11:28:27;;;;;;;;;21.00;20.00;;;;;11.52;65.89;102087.53;5100898;27;45249;-61
2021/11/20 11:30:52;;;;;;;;;22.75;22.50;;;;;11.50;65.59;102080.41;5099842;27;45370;-61
2021/11/20 11:33:18;;;;;;;;;14.67;14.67;;;;;11.51;65.40;102083.97;5100918;27;46376;-61
2021/11/20 11:35:56;;;;;;;;;18.25;15.75;;;;;11.52;65.99;102074.16;5093489;27;45221;-61
2021/11/20 11:38:40;;;;;;;;;14.50;14.50;;;;;11.53;65.93;102074.13;5098294;27;45273;-61